createdAt,value
2019-01-12T00:01:30.486Z,101409.41
2019-01-12T00:04:00.381Z,101408.69
2019-01-12T00:06:29.887Z,101409.14
2019-01-12T00:08:59.352Z,101407.52
2019-01-12T00:11:29.265Z,101412.38
2019-01-12T00:13:58.792Z,101405.14
2019-01-12T00:16:28.274Z,101411.62
2019-01-12T00:18:57.804Z,101420.53
2019-01-12T00:21:27.359Z,101418.98
2019-01-12T00:23:57.379Z,101412.97
2019-01-12T00:26:26.907Z,101422.70
2019-01-12T00:28:56.423Z,101416.50
2019-01-12T00:31:25.929Z,101406.41
2019-01-12T00:33:55.529Z,101410.74
2019-01-12T00:36:25.029Z,101407.57
2019-01-12T00:38:54.504Z,101407.88
2019-01-12T00:41:24.071Z,101408.69
2019-01-12T00:43:53.589Z,101398.34
2019-01-12T00:46:23.199Z,101409.39
2019-01-12T00:48:52.726Z,101411.02
2019-01-12T00:51:22.663Z,101411.47
2019-01-12T00:53:52.220Z,101401.53
2019-01-12T00:56:21.811Z,101406.67
2019-01-12T00:58:51.514Z,101391.15
2019-01-12T01:01:21.026Z,101392.27
2019-01-12T01:03:50.588Z,101392.84
2019-01-12T01:06:20.052Z,101395.92
2019-01-12T01:08:49.557Z,101400.14
2019-01-12T01:11:19.063Z,101391.06
2019-01-12T01:13:48.565Z,101388.90
2019-01-12T01:16:18.557Z,101390.20
2019-01-12T01:18:48.159Z,101387.45
2019-01-12T01:21:17.666Z,101394.56
2019-01-12T01:23:47.173Z,101387.19
2019-01-12T01:26:16.738Z,101386.47
2019-01-12T01:28:46.674Z,101375.84
2019-01-12T01:31:16.165Z,101379.63
2019-01-12T01:33:45.666Z,101376.88
2019-01-12T01:36:15.167Z,101373.51
2019-01-12T01:38:44.704Z,101375.45
2019-01-12T01:41:14.280Z,101379.89
2019-01-12T01:43:43.792Z,101374.19
2019-01-12T01:46:13.286Z,101384.11
2019-01-12T01:48:42.792Z,101379.07
2019-01-12T01:51:12.284Z,101385.02
2019-01-12T01:53:41.755Z,101373.23
2019-01-12T01:56:11.244Z,101373.36
2019-01-12T01:58:40.726Z,101376.81
2019-01-12T02:01:10.298Z,101375.45
2019-01-12T02:03:39.866Z,101373.91
2019-01-12T02:06:09.362Z,101378.73
2019-01-12T02:08:38.834Z,101379.89
2019-01-12T02:11:08.412Z,101384.44
2019-01-12T02:13:37.863Z,101381.08
2019-01-12T02:16:07.340Z,101384.08
2019-01-12T02:18:36.937Z,101388.41
2019-01-12T02:21:06.811Z,101382.81
2019-01-12T02:23:36.304Z,101382.53
2019-01-12T02:26:06.258Z,101372.27
2019-01-12T02:28:35.733Z,101369.98
2019-01-12T02:31:05.294Z,101373.50
2019-01-12T02:33:34.828Z,101360.69
2019-01-12T02:36:04.324Z,101370.86
2019-01-12T02:38:33.820Z,101364.09
2019-01-12T02:41:03.344Z,101360.58
2019-01-12T02:43:32.826Z,101358.12
2019-01-12T02:46:02.302Z,101359.36
2019-01-12T02:48:31.866Z,101348.86
2019-01-12T02:51:01.350Z,101348.45
2019-01-12T02:53:30.849Z,101343.20
2019-01-12T02:56:00.377Z,101345.95
2019-01-12T02:58:29.847Z,101341.44
2019-01-12T03:00:59.316Z,101338.33
2019-01-12T03:03:29.289Z,101343.78
2019-01-12T03:05:58.767Z,101333.48
2019-01-12T03:08:28.258Z,101334.22
2019-01-12T03:10:58.207Z,101329.89
2019-01-12T03:13:27.685Z,101326.55
2019-01-12T03:15:57.146Z,101327.46
2019-01-12T03:18:27.554Z,101325.89
2019-01-12T03:20:57.020Z,101322.77
2019-01-12T03:23:26.501Z,101319.36
2019-01-12T03:25:56.345Z,101321.05
2019-01-12T03:28:25.814Z,101319.99
2019-01-12T03:30:55.352Z,101317.22
2019-01-12T03:33:25.238Z,101311.18
2019-01-12T03:35:54.700Z,101311.77
2019-01-12T03:38:24.196Z,101309.23
2019-01-12T03:40:53.736Z,101310.47
2019-01-12T03:43:23.234Z,101311.47
2019-01-12T03:45:52.710Z,101300.58
2019-01-12T03:48:22.233Z,101298.37
2019-01-12T03:50:51.795Z,101300.93
2019-01-12T03:53:21.312Z,101295.25
2019-01-12T03:55:51.122Z,101291.12
2019-01-12T03:58:20.650Z,101275.40
2019-01-12T04:00:50.219Z,101282.08
2019-01-12T04:03:19.731Z,101273.96
2019-01-12T04:05:49.551Z,101273.61
2019-01-12T04:08:19.023Z,101277.67
2019-01-12T04:10:48.560Z,101273.23
2019-01-12T04:13:18.061Z,101271.97
2019-01-12T04:15:47.566Z,101271.48
2019-01-12T04:18:17.512Z,101278.10
2019-01-12T04:20:47.004Z,101275.11
2019-01-12T04:23:16.499Z,101270.53
2019-01-12T04:25:46.027Z,101267.20
2019-01-12T04:28:15.505Z,101262.03
2019-01-12T04:30:44.986Z,101268.80
2019-01-12T04:33:14.513Z,101263.16
2019-01-12T04:35:44.027Z,101269.58
2019-01-12T04:38:13.512Z,101259.17
2019-01-12T04:40:43.156Z,101260.91
2019-01-12T04:43:12.674Z,101255.11
2019-01-12T04:45:42.172Z,101252.47
2019-01-12T04:48:11.666Z,101247.55
2019-01-12T04:50:41.155Z,101246.47
2019-01-12T04:53:10.629Z,101250.16
2019-01-12T04:55:41.557Z,101244.55
2019-01-12T04:58:11.375Z,101246.23
2019-01-12T05:00:40.856Z,101245.75
2019-01-12T05:03:10.410Z,101244.13
2019-01-12T05:05:39.945Z,101248.39
2019-01-12T05:08:09.424Z,101240.52
2019-01-12T05:10:38.922Z,101243.91
2019-01-12T05:13:08.427Z,101245.00
2019-01-12T05:15:37.941Z,101246.80
2019-01-12T05:18:07.439Z,101244.32
2019-01-12T05:20:36.957Z,101243.83
2019-01-12T05:23:06.442Z,101238.99
2019-01-12T05:25:36.290Z,101240.49
2019-01-12T05:28:05.770Z,101231.01
2019-01-12T05:30:35.272Z,101238.13
2019-01-12T05:33:04.810Z,101234.84
2019-01-12T05:35:34.306Z,101233.97
2019-01-12T05:38:03.814Z,101233.42
2019-01-12T05:40:33.409Z,101223.97
2019-01-12T05:43:02.889Z,101227.77
2019-01-12T05:45:32.366Z,101226.45
2019-01-12T05:48:02.391Z,101225.38
2019-01-12T05:50:31.872Z,101236.78
2019-01-12T05:53:01.401Z,101226.33
2019-01-12T05:55:30.900Z,101223.43
2019-01-12T05:58:00.445Z,101229.47
2019-01-12T06:00:29.911Z,101222.59
2019-01-12T06:02:59.422Z,101225.95
2019-01-12T06:05:28.945Z,101232.14
2019-01-12T06:07:58.444Z,101228.45
2019-01-12T06:10:28.254Z,101220.25
2019-01-12T06:12:57.776Z,101225.59
2019-01-12T06:15:27.229Z,101216.34
2019-01-12T06:17:56.714Z,101215.07
2019-01-12T06:20:26.237Z,101217.80
2019-01-12T06:22:55.709Z,101210.20
2019-01-12T06:25:25.232Z,101212.61
2019-01-12T06:27:54.681Z,101216.31
2019-01-12T06:30:24.542Z,101212.61
2019-01-12T06:32:54.108Z,101211.56
2019-01-12T06:35:23.590Z,101208.17
2019-01-12T06:37:53.051Z,101209.58
2019-01-12T06:40:22.557Z,101212.47
2019-01-12T06:42:52.063Z,101206.16
2019-01-12T06:45:21.532Z,101216.20
2019-01-12T06:47:51.059Z,101204.55
2019-01-12T06:50:20.627Z,101196.66
2019-01-12T06:52:50.191Z,101199.36
2019-01-12T06:55:19.733Z,101205.00
2019-01-12T06:57:49.235Z,101201.02
2019-01-12T07:00:19.945Z,101193.05
2019-01-12T07:02:49.439Z,101191.20
2019-01-12T07:05:19.389Z,101198.88
2019-01-12T07:07:49.253Z,101197.48
2019-01-12T07:10:18.840Z,101192.06
2019-01-12T07:12:48.345Z,101189.77
2019-01-12T07:15:18.042Z,101186.30
2019-01-12T07:17:47.865Z,101181.94
2019-01-12T07:20:18.391Z,101175.98
2019-01-12T07:22:47.869Z,101175.08
2019-01-12T07:25:17.371Z,101175.78
2019-01-12T07:27:46.855Z,101168.46
2019-01-12T07:30:19.661Z,101176.93
2019-01-12T07:32:49.423Z,101169.89
2019-01-12T07:35:19.283Z,101162.16
2019-01-12T07:37:48.743Z,101157.47
2019-01-12T07:40:18.239Z,101162.37
2019-01-12T07:42:47.734Z,101154.78
2019-01-12T07:45:17.196Z,101157.17
2019-01-12T07:47:46.674Z,101154.38
2019-01-12T07:50:16.604Z,101152.84
2019-01-12T07:52:46.092Z,101153.06
2019-01-12T07:55:15.821Z,101148.27
2019-01-12T07:57:45.287Z,101148.69
2019-01-12T08:00:18.940Z,101145.65
2019-01-12T08:02:48.507Z,101147.02
2019-01-12T08:05:18.338Z,101151.77
2019-01-12T08:07:47.818Z,101152.48
2019-01-12T08:10:23.253Z,101139.80
2019-01-12T08:12:52.887Z,101141.95
2019-01-12T08:15:22.489Z,101132.62
2019-01-12T08:17:52.064Z,101133.45
2019-01-12T08:20:21.533Z,101135.31
2019-01-12T08:22:51.001Z,101131.70
2019-01-12T08:25:20.565Z,101127.68
2019-01-12T08:27:50.148Z,101134.95
2019-01-12T08:30:19.741Z,101130.59
2019-01-12T08:32:49.930Z,101130.59
2019-01-12T08:35:19.439Z,101132.70
2019-01-12T08:37:48.914Z,101121.83
2019-01-12T08:40:18.414Z,101132.56
2019-01-12T08:42:48.326Z,101119.25
2019-01-12T08:45:17.871Z,101120.00
2019-01-12T08:47:47.402Z,101119.10
2019-01-12T08:50:18.621Z,101110.09
2019-01-12T08:52:48.253Z,101113.89
2019-01-12T08:55:18.127Z,101113.84
2019-01-12T08:57:47.746Z,101109.35
2019-01-12T09:00:20.426Z,101109.57
2019-01-12T09:02:50.039Z,101101.27
2019-01-12T09:05:19.601Z,101097.59
2019-01-12T09:07:49.088Z,101097.59
2019-01-12T09:10:20.403Z,101097.87
2019-01-12T09:12:49.903Z,101095.09
2019-01-12T09:15:19.593Z,101089.20
2019-01-12T09:17:49.095Z,101083.87
2019-01-12T09:20:18.595Z,101077.63
2019-01-12T09:22:48.160Z,101081.17
2019-01-12T09:25:18.331Z,101065.84
2019-01-12T09:27:47.825Z,101062.92
2019-01-12T09:30:20.046Z,101054.55
2019-01-12T09:32:50.338Z,101059.80
2019-01-12T09:35:20.346Z,101058.03
2019-01-12T09:37:49.903Z,101050.44
2019-01-12T09:40:20.039Z,101053.27
2019-01-12T09:42:49.921Z,101036.59
2019-01-12T09:45:19.927Z,101028.50
2019-01-12T09:47:49.578Z,101022.47
2019-01-12T09:50:20.355Z,101025.52
2019-01-12T09:52:50.291Z,101014.65
2019-01-12T09:55:19.963Z,101012.02
2019-01-12T09:57:49.395Z,101007.97
2019-01-12T10:00:24.357Z,100999.80
2019-01-12T10:02:53.874Z,100988.36
2019-01-12T10:05:23.707Z,100990.05
2019-01-12T10:07:53.176Z,100982.89
2019-01-12T10:10:24.464Z,100979.23
2019-01-12T10:12:53.930Z,100976.46
2019-01-12T10:15:23.697Z,100963.19
2019-01-12T10:17:53.314Z,100955.64
2019-01-12T10:20:22.879Z,100954.33
2019-01-12T10:22:52.333Z,100952.23
2019-01-12T10:25:21.835Z,100936.95
2019-01-12T10:27:51.299Z,100929.63
2019-01-12T10:30:23.893Z,100926.58
2019-01-12T10:32:54.020Z,100913.73
2019-01-12T10:35:23.592Z,100905.51
2019-01-12T10:37:53.205Z,100899.47
2019-01-12T10:40:22.978Z,100897.73
2019-01-12T10:42:52.834Z,100885.19
2019-01-12T10:45:23.352Z,100881.54
2019-01-12T10:47:53.500Z,100875.94
2019-01-12T10:50:27.271Z,100874.92
2019-01-12T10:52:56.728Z,100862.20
2019-01-12T10:55:26.436Z,100863.72
2019-01-12T10:57:55.996Z,100857.33
2019-01-12T11:00:34.850Z,100864.84
2019-01-12T11:03:05.248Z,100847.89
2019-01-12T11:05:34.772Z,100838.89
2019-01-12T11:08:05.173Z,100840.45
2019-01-12T11:10:34.654Z,100830.38
2019-01-12T11:13:04.428Z,100826.96
2019-01-12T11:15:34.116Z,100817.97
2019-01-12T11:18:03.715Z,100797.56
2019-01-12T11:20:33.258Z,100801.75
2019-01-12T11:23:02.844Z,100796.34
2019-01-12T11:25:32.321Z,100788.06
2019-01-12T11:28:01.874Z,100777.64
2019-01-12T11:30:31.408Z,100770.53
2019-01-12T11:33:00.866Z,100763.73
2019-01-12T11:35:30.415Z,100757.25
2019-01-12T11:37:59.981Z,100745.50
2019-01-12T11:40:29.563Z,100740.72
2019-01-12T11:42:59.136Z,100738.66
2019-01-12T11:45:28.706Z,100721.02
2019-01-12T11:47:58.211Z,100722.67
2019-01-12T11:50:27.726Z,100719.31
2019-01-12T11:52:57.429Z,100716.17
2019-01-12T11:55:26.881Z,100702.20
2019-01-12T11:57:56.339Z,100702.06
2019-01-12T12:00:28.635Z,100693.00
2019-01-12T12:02:58.163Z,100683.34
2019-01-12T12:05:27.611Z,100686.98
2019-01-12T12:07:58.010Z,100668.61
2019-01-12T12:10:27.637Z,100665.59
2019-01-12T12:12:57.163Z,100666.09
2019-01-12T12:15:26.732Z,100652.15
2019-01-12T12:17:56.609Z,100638.03
2019-01-12T12:20:26.863Z,100641.05
2019-01-12T12:22:57.462Z,100629.89
2019-01-12T12:25:27.023Z,100623.11
2019-01-12T12:27:56.537Z,100608.98
2019-01-12T12:30:28.348Z,100605.53
2019-01-12T12:32:57.939Z,100600.52
2019-01-12T12:35:27.422Z,100590.44
2019-01-12T12:37:57.496Z,100585.04
2019-01-12T12:40:27.711Z,100578.41
2019-01-12T12:42:57.222Z,100577.89
2019-01-12T12:45:30.391Z,100566.13
2019-01-12T12:47:59.929Z,100546.94
2019-01-12T12:50:29.765Z,100551.38
2019-01-12T12:53:18.919Z,100537.55
2019-01-12T12:55:48.414Z,100537.16
2019-01-12T12:58:17.943Z,100528.28
2019-01-12T13:00:47.540Z,100519.08
2019-01-12T13:03:17.023Z,100507.49
2019-01-12T13:05:46.520Z,100509.56
2019-01-12T13:08:16.186Z,100496.97
2019-01-12T13:10:46.033Z,100496.21
2019-01-12T13:13:15.598Z,100493.02
2019-01-12T13:15:45.174Z,100486.78
2019-01-12T13:18:15.203Z,100483.39
2019-01-12T13:20:44.735Z,100474.48
2019-01-12T13:23:14.563Z,100473.44
2019-01-12T13:25:44.116Z,100473.27
2019-01-12T13:28:13.594Z,100470.09
2019-01-12T13:30:43.106Z,100459.97
2019-01-12T13:33:12.591Z,100467.90
2019-01-12T13:35:42.122Z,100459.69
2019-01-12T13:38:11.633Z,100451.10
2019-01-12T13:40:41.146Z,100450.80
2019-01-12T13:43:10.631Z,100445.69
2019-01-12T13:45:40.865Z,100455.23
2019-01-12T13:48:10.373Z,100442.83
2019-01-12T13:50:39.858Z,100447.94
2019-01-12T13:53:09.356Z,100445.78
2019-01-12T13:55:38.855Z,100435.21
2019-01-12T13:58:09.996Z,100439.45
2019-01-12T14:00:39.597Z,100431.50
2019-01-12T14:03:09.704Z,100428.25
2019-01-12T14:05:39.205Z,100423.42
2019-01-12T14:08:09.210Z,100422.77
2019-01-12T14:10:38.797Z,100414.76
2019-01-12T14:13:11.483Z,100411.93
2019-01-12T14:15:41.327Z,100408.22
2019-01-12T14:18:11.404Z,100397.80
2019-01-12T14:20:42.775Z,100396.37
2019-01-12T14:23:12.629Z,100401.95
2019-01-12T14:25:42.128Z,100390.13
2019-01-12T14:28:11.627Z,100399.19
2019-01-12T14:30:41.192Z,100396.41
2019-01-12T14:33:10.673Z,100401.83
2019-01-12T14:35:40.233Z,100398.17
2019-01-12T14:38:09.795Z,100402.86
2019-01-12T14:40:39.345Z,100402.94
2019-01-12T14:43:08.880Z,100407.19
2019-01-12T14:45:38.522Z,100398.99
2019-01-12T14:48:07.984Z,100397.97
2019-01-12T14:50:37.537Z,100400.84
2019-01-12T14:53:07.142Z,100399.52
2019-01-12T14:55:36.616Z,100396.56
2019-01-12T14:58:06.555Z,100394.49
2019-01-12T15:00:36.106Z,100383.17
2019-01-12T15:03:05.888Z,100382.72
2019-01-12T15:05:36.175Z,100389.40
2019-01-12T15:08:06.558Z,100399.05
2019-01-12T15:10:36.131Z,100385.31
2019-01-12T15:13:06.005Z,100387.75
2019-01-12T15:15:35.529Z,100382.75
2019-01-12T15:18:08.049Z,100378.55
2019-01-12T15:20:37.530Z,100383.86
2019-01-12T15:23:07.135Z,100375.31
2019-01-12T15:25:36.621Z,100384.14
2019-01-12T15:28:09.355Z,100371.39
2019-01-12T15:30:37.471Z,100371.67
2019-01-12T15:33:07.025Z,100372.69
2019-01-12T15:35:36.650Z,100367.74
2019-01-12T15:38:06.171Z,100362.19
2019-01-12T15:40:35.759Z,100365.58
2019-01-12T15:43:05.340Z,100362.47
2019-01-12T15:45:35.062Z,100365.38
2019-01-12T15:48:04.754Z,100357.45
2019-01-12T15:50:34.258Z,100361.20
2019-01-12T15:53:04.047Z,100353.23
2019-01-12T15:55:33.531Z,100345.94
2019-01-12T15:58:03.045Z,100347.67
2019-01-12T16:00:32.613Z,100339.03
2019-01-12T16:03:02.090Z,100338.87
2019-01-12T16:05:31.645Z,100326.89
2019-01-12T16:08:01.165Z,100334.86
2019-01-12T16:10:30.646Z,100326.39
2019-01-12T16:13:00.157Z,100333.44
2019-01-12T16:15:31.473Z,100334.82
2019-01-12T16:18:01.241Z,100338.16
2019-01-12T16:20:36.744Z,100336.30
2019-01-12T16:23:06.272Z,100332.95
2019-01-12T16:25:35.815Z,100325.36
2019-01-12T16:28:05.382Z,100325.56
2019-01-12T16:30:35.419Z,100319.77
2019-01-12T16:33:05.333Z,100318.94
2019-01-12T16:35:34.898Z,100315.08
2019-01-12T16:38:04.542Z,100319.92
2019-01-12T16:40:34.038Z,100317.21
2019-01-12T16:43:04.554Z,100321.13
2019-01-12T16:45:34.881Z,100325.70
2019-01-12T16:48:04.501Z,100312.48
2019-01-12T16:50:33.965Z,100320.52
2019-01-12T16:53:03.628Z,100315.37
2019-01-12T16:55:33.140Z,100320.94
2019-01-12T16:58:02.703Z,100307.27
2019-01-12T17:00:32.264Z,100324.66
2019-01-12T17:03:01.855Z,100322.23
2019-01-12T17:05:31.581Z,100324.95
2019-01-12T17:08:01.187Z,100329.98
2019-01-12T17:10:32.113Z,100326.32
2019-01-12T17:13:02.265Z,100327.49
2019-01-12T17:15:34.862Z,100320.94
2019-01-12T17:18:04.203Z,100318.36
2019-01-12T17:20:33.694Z,100308.80
2019-01-12T17:23:03.270Z,100311.94
2019-01-12T17:25:32.816Z,100301.92
2019-01-12T17:28:02.395Z,100306.33
2019-01-12T17:30:31.909Z,100304.35
2019-01-12T17:33:01.514Z,100299.30
2019-01-12T17:35:31.069Z,100302.66
2019-01-12T17:38:00.727Z,100300.67
2019-01-12T17:40:30.851Z,100297.73
2019-01-12T17:43:00.338Z,100305.20
2019-01-12T17:45:29.822Z,100300.81
2019-01-12T17:47:59.327Z,100304.39
2019-01-12T17:50:28.896Z,100293.52
2019-01-12T17:52:58.524Z,100310.23
2019-01-12T17:55:28.059Z,100300.83
2019-01-12T17:57:57.624Z,100300.88
2019-01-12T18:00:32.235Z,100293.84
2019-01-12T18:03:01.454Z,100302.28
2019-01-12T18:05:30.911Z,100286.09
2019-01-12T18:08:00.508Z,100289.20
2019-01-12T18:10:30.075Z,100289.45
2019-01-12T18:12:59.541Z,100288.70
2019-01-12T18:15:29.974Z,100285.70
2019-01-12T18:17:59.453Z,100291.63
2019-01-12T18:20:28.955Z,100294.50
2019-01-12T18:22:58.949Z,100291.77
2019-01-12T18:25:28.455Z,100290.10
2019-01-12T18:27:57.926Z,100284.34
2019-01-12T18:30:28.282Z,100295.37
2019-01-12T18:32:57.759Z,100294.19
2019-01-12T18:35:27.321Z,100297.63
2019-01-12T18:37:56.813Z,100304.64
2019-01-12T18:40:26.687Z,100296.91
2019-01-12T18:42:56.175Z,100294.94
2019-01-12T18:45:25.759Z,100296.66
2019-01-12T18:47:55.232Z,100291.53
2019-01-12T18:50:27.438Z,100294.05
2019-01-12T18:52:57.002Z,100285.73
2019-01-12T18:55:26.902Z,100280.13
2019-01-12T18:57:56.462Z,100285.66
2019-01-12T19:00:28.645Z,100286.91
2019-01-12T19:02:58.165Z,100278.66
2019-01-12T19:05:27.952Z,100284.03
2019-01-12T19:07:57.548Z,100277.64
2019-01-12T19:10:27.027Z,100272.59
2019-01-12T19:12:56.661Z,100266.21
2019-01-12T19:15:29.423Z,100268.53
2019-01-12T19:17:58.905Z,100271.56
2019-01-12T19:20:28.451Z,100262.01
2019-01-12T19:22:58.059Z,100264.17
2019-01-12T19:25:27.562Z,100263.64
2019-01-12T19:27:57.068Z,100256.05
2019-01-12T19:30:26.607Z,100258.77
2019-01-12T19:32:56.173Z,100264.34
2019-01-12T19:35:25.682Z,100248.78
2019-01-12T19:37:55.596Z,100261.91
2019-01-12T19:40:25.315Z,100258.35
2019-01-12T19:42:54.850Z,100256.55
2019-01-12T19:45:24.364Z,100248.97
2019-01-12T19:47:53.987Z,100253.70
2019-01-12T19:50:24.842Z,100246.82
2019-01-12T19:52:54.490Z,100243.39
2019-01-12T19:55:24.015Z,100246.60
2019-01-12T19:57:53.499Z,100238.81
2019-01-12T20:00:27.199Z,100240.77
2019-01-12T20:02:56.681Z,100234.34
2019-01-12T20:05:26.178Z,100229.03
2019-01-12T20:07:55.690Z,100230.38
2019-01-12T20:10:25.165Z,100230.75
2019-01-12T20:12:54.693Z,100232.74
2019-01-12T20:15:25.587Z,100230.39
2019-01-12T20:17:55.116Z,100226.31
2019-01-12T20:20:25.297Z,100234.16
2019-01-12T20:22:55.105Z,100233.26
2019-01-12T20:25:28.098Z,100220.42
2019-01-12T20:27:58.041Z,100222.66
2019-01-12T20:30:44.443Z,100222.48
2019-01-12T20:33:24.353Z,100217.20
2019-01-12T20:36:29.783Z,100224.56
2019-01-12T20:39:37.465Z,100226.64
2019-01-12T20:42:14.562Z,100212.91
2019-01-12T20:45:14.297Z,100209.35
2019-01-12T20:47:48.539Z,100206.69
2019-01-12T20:50:31.533Z,100216.05
2019-01-12T20:53:17.845Z,100203.00
2019-01-12T20:55:58.577Z,100202.30
2019-01-12T20:58:36.393Z,100216.31
2019-01-12T21:01:38.982Z,100204.70
2019-01-12T21:04:13.233Z,100211.23
2019-01-12T21:07:06.669Z,100220.48
2019-01-12T21:10:00.320Z,100217.07
2019-01-12T21:13:09.201Z,100214.30
2019-01-12T21:15:43.883Z,100203.60
2019-01-12T21:18:13.780Z,100215.66
2019-01-12T21:20:44.501Z,100219.78
2019-01-12T21:23:14.035Z,100216.11
2019-01-12T21:25:43.599Z,100205.02
2019-01-12T21:28:13.088Z,100218.42
2019-01-12T21:30:42.588Z,100227.13
2019-01-12T21:33:12.074Z,100210.91
2019-01-12T21:35:41.561Z,100212.98
2019-01-12T21:38:11.401Z,100208.64
2019-01-12T21:40:40.902Z,100211.41
2019-01-12T21:43:10.399Z,100208.98
2019-01-12T21:45:39.899Z,100217.97
2019-01-12T21:48:09.548Z,100220.65
2019-01-12T21:50:39.050Z,100213.83
2019-01-12T21:53:08.572Z,100207.98
2019-01-12T21:55:38.038Z,100211.47
2019-01-12T21:58:07.529Z,100206.74
2019-01-12T22:00:38.820Z,100203.41
2019-01-12T22:03:09.398Z,100201.06
2019-01-12T22:05:38.879Z,100197.49
2019-01-12T22:08:08.472Z,100198.64
2019-01-12T22:10:37.926Z,100201.47
2019-01-12T22:13:07.489Z,100198.45
2019-01-12T22:15:36.997Z,100196.64
2019-01-12T22:18:06.623Z,100197.03
2019-01-12T22:20:36.116Z,100193.39
2019-01-12T22:23:06.354Z,100196.27
2019-01-12T22:25:35.853Z,100191.05
2019-01-12T22:28:05.370Z,100190.23
2019-01-12T22:30:35.285Z,100199.02
2019-01-12T22:33:05.204Z,100191.80
2019-01-12T22:35:34.713Z,100195.43
2019-01-12T22:38:04.246Z,100190.52
2019-01-12T22:40:33.753Z,100194.20
2019-01-12T22:43:03.230Z,100191.34
2019-01-12T22:45:33.227Z,100202.94
2019-01-12T22:48:02.784Z,100201.28
2019-01-12T22:50:32.288Z,100188.80
2019-01-12T22:53:02.256Z,100191.47
2019-01-12T22:55:31.771Z,100195.72
2019-01-12T22:58:01.281Z,100189.48
2019-01-12T23:00:53.894Z,100191.08
2019-01-12T23:03:23.384Z,100187.48
2019-01-12T23:05:52.862Z,100177.02
2019-01-12T23:08:22.435Z,100181.77
2019-01-12T23:10:51.924Z,100177.07
2019-01-12T23:13:21.446Z,100178.34
2019-01-12T23:15:51.040Z,100175.87
2019-01-12T23:18:20.525Z,100163.28
2019-01-12T23:20:50.073Z,100166.33
2019-01-12T23:23:20.121Z,100170.88
2019-01-12T23:25:49.594Z,100168.34
2019-01-12T23:28:19.070Z,100176.77
2019-01-12T23:30:48.578Z,100169.98
2019-01-12T23:33:18.080Z,100167.99
2019-01-12T23:35:47.540Z,100168.33
2019-01-12T23:38:17.044Z,100167.28
2019-01-12T23:40:46.520Z,100159.20
2019-01-12T23:43:16.030Z,100163.28
2019-01-12T23:45:46.504Z,100157.52
2019-01-12T23:48:16.006Z,100154.50
2019-01-12T23:50:45.482Z,100162.61
2019-01-12T23:53:14.986Z,100164.98
2019-01-12T23:55:44.490Z,100158.22
2019-01-12T23:58:13.970Z,100160.58
